createdAt,value
2018-09-18T00:02:15.999Z,20.70
2018-09-18T00:04:43.785Z,20.50
2018-09-18T00:07:11.593Z,20.40
2018-09-18T00:09:39.351Z,20.40
2018-09-18T00:12:07.167Z,20.30
2018-09-18T00:14:34.951Z,20.30
2018-09-18T00:17:02.748Z,20.30
2018-09-18T00:19:30.530Z,20.10
2018-09-18T00:21:58.297Z,20.20
2018-09-18T00:24:26.125Z,20.00
2018-09-18T00:26:53.946Z,20.00
2018-09-18T00:29:22.112Z,20.00
2018-09-18T00:31:49.964Z,19.90
2018-09-18T00:34:17.740Z,19.90
2018-09-18T00:36:45.541Z,20.10
2018-09-18T00:39:13.353Z,20.00
2018-09-18T00:41:41.133Z,19.90
2018-09-18T00:44:08.917Z,19.80
2018-09-18T00:46:36.695Z,19.90
2018-09-18T00:49:04.510Z,19.80
2018-09-18T00:51:32.273Z,19.80
2018-09-18T00:54:00.038Z,19.70
2018-09-18T00:56:27.828Z,19.60
2018-09-18T00:58:55.749Z,19.60
2018-09-18T01:01:23.647Z,19.70
2018-09-18T01:03:52.452Z,19.50
2018-09-18T01:06:20.333Z,19.50
2018-09-18T01:08:48.261Z,19.60
2018-09-18T01:11:16.038Z,19.50
2018-09-18T01:13:43.796Z,19.40
2018-09-18T01:16:11.581Z,19.50
2018-09-18T01:18:40.685Z,19.40
2018-09-18T01:21:09.116Z,19.30
2018-09-18T01:23:37.105Z,19.30
2018-09-18T01:26:04.976Z,19.30
2018-09-18T01:28:33.226Z,19.30
2018-09-18T01:31:01.029Z,19.20
2018-09-18T01:33:28.909Z,19.20
2018-09-18T01:35:56.796Z,19.30
2018-09-18T01:38:24.844Z,19.40
2018-09-18T01:40:53.045Z,19.50
2018-09-18T01:43:21.249Z,19.60
2018-09-18T01:45:49.559Z,19.60
2018-09-18T01:48:17.666Z,19.50
2018-09-18T01:50:45.517Z,19.40
2018-09-18T01:53:13.400Z,19.30
2018-09-18T01:55:41.247Z,19.30
2018-09-18T01:58:09.080Z,19.20
2018-09-18T02:00:36.962Z,18.80
2018-09-18T02:03:04.833Z,19.10
2018-09-18T02:05:32.642Z,19.00
2018-09-18T02:08:00.670Z,19.00
2018-09-18T02:10:28.488Z,18.90
2018-09-18T02:12:56.632Z,18.90
2018-09-18T02:15:24.428Z,18.90
2018-09-18T02:17:52.321Z,18.90
2018-09-18T02:20:20.240Z,18.80
2018-09-18T02:22:48.072Z,19.00
2018-09-18T02:25:15.926Z,19.00
2018-09-18T02:27:43.697Z,18.90
2018-09-18T02:30:11.532Z,18.80
2018-09-18T02:32:39.292Z,18.80
2018-09-18T02:35:07.054Z,18.70
2018-09-18T02:37:34.834Z,18.60
2018-09-18T02:40:03.489Z,18.60
2018-09-18T02:42:31.446Z,18.50
2018-09-18T02:44:59.228Z,18.60
2018-09-18T02:47:27.096Z,18.60
2018-09-18T02:49:54.869Z,18.60
2018-09-18T02:52:22.775Z,18.60
2018-09-18T02:54:50.612Z,18.40
2018-09-18T02:57:18.410Z,18.60
2018-09-18T02:59:46.177Z,18.60
2018-09-18T03:02:13.988Z,18.60
2018-09-18T03:04:42.653Z,18.50
2018-09-18T03:07:10.456Z,18.60
2018-09-18T03:09:38.204Z,18.50
2018-09-18T03:12:06.003Z,18.40
2018-09-18T03:14:33.781Z,18.40
2018-09-18T03:17:01.522Z,18.50
2018-09-18T03:19:29.345Z,18.50
2018-09-18T03:21:57.240Z,18.50
2018-09-18T03:24:25.027Z,18.40
2018-09-18T03:26:52.929Z,18.30
2018-09-18T03:29:20.825Z,18.30
2018-09-18T03:31:48.632Z,18.30
2018-09-18T03:34:16.410Z,18.30
2018-09-18T03:36:44.189Z,18.20
2018-09-18T03:39:11.999Z,18.30
2018-09-18T03:41:39.765Z,18.30
2018-09-18T03:44:07.585Z,18.20
2018-09-18T03:46:35.389Z,18.20
2018-09-18T03:49:03.200Z,18.10
2018-09-18T03:51:30.977Z,18.10
2018-09-18T03:53:58.813Z,18.10
2018-09-18T03:56:26.579Z,18.00
2018-09-18T03:58:54.525Z,18.00
2018-09-18T04:01:22.567Z,17.90
2018-09-18T04:03:53.951Z,17.90
2018-09-18T04:06:23.001Z,17.90
2018-09-18T04:08:51.075Z,17.60
2018-09-18T04:11:18.889Z,17.80
2018-09-18T04:13:46.740Z,17.70
2018-09-18T04:16:14.532Z,17.70
2018-09-18T04:18:42.292Z,17.70
2018-09-18T04:21:10.098Z,17.90
2018-09-18T04:23:37.889Z,17.90
2018-09-18T04:26:05.873Z,17.80
2018-09-18T04:28:33.713Z,17.80
2018-09-18T04:31:01.517Z,17.70
2018-09-18T04:33:29.349Z,17.70
2018-09-18T04:35:57.157Z,17.60
2018-09-18T04:38:25.003Z,17.60
2018-09-18T04:40:53.005Z,17.50
2018-09-18T04:43:21.040Z,17.50
2018-09-18T04:45:48.817Z,17.40
2018-09-18T04:48:16.589Z,17.40
2018-09-18T04:50:44.487Z,17.50
2018-09-18T04:53:12.257Z,17.50
2018-09-18T04:55:40.860Z,17.40
2018-09-18T04:58:08.707Z,17.50
2018-09-18T05:00:36.846Z,17.60
2018-09-18T05:03:05.069Z,17.60
2018-09-18T05:05:32.821Z,17.60
2018-09-18T05:08:00.687Z,17.70
2018-09-18T05:10:28.509Z,17.80
2018-09-18T05:12:56.329Z,17.80
2018-09-18T05:15:24.109Z,17.70
2018-09-18T05:17:51.954Z,17.80
2018-09-18T05:20:19.814Z,17.70
2018-09-18T05:22:47.586Z,17.80
2018-09-18T05:25:15.388Z,17.70
2018-09-18T05:27:43.177Z,17.70
2018-09-18T05:30:10.924Z,17.70
2018-09-18T05:32:38.688Z,17.70
2018-09-18T05:35:06.517Z,17.80
2018-09-18T05:37:34.285Z,17.90
2018-09-18T05:40:02.052Z,17.90
2018-09-18T05:42:29.942Z,17.90
2018-09-18T05:44:57.832Z,18.50
2018-09-18T05:47:25.607Z,17.90
2018-09-18T05:49:53.581Z,18.00
2018-09-18T05:52:21.496Z,18.20
2018-09-18T05:54:49.326Z,18.60
2018-09-18T05:57:17.182Z,18.70
2018-09-18T05:59:44.977Z,19.10
2018-09-18T06:02:12.745Z,19.30
2018-09-18T06:04:40.936Z,19.70
2018-09-18T06:07:08.769Z,19.80
2018-09-18T06:09:36.544Z,20.00
2018-09-18T06:12:04.345Z,20.30
2018-09-18T06:14:32.177Z,20.50
2018-09-18T06:16:59.946Z,20.60
2018-09-18T06:19:27.809Z,20.90
2018-09-18T06:21:55.545Z,20.90
2018-09-18T06:24:23.351Z,21.00
2018-09-18T06:26:51.216Z,21.30
2018-09-18T06:29:18.973Z,21.60
2018-09-18T06:31:46.759Z,21.80
2018-09-18T06:34:14.524Z,21.90
2018-09-18T06:36:42.296Z,22.00
2018-09-18T06:39:11.115Z,22.30
2018-09-18T06:41:39.256Z,22.50
2018-09-18T06:44:07.149Z,22.60
2018-09-18T06:46:34.906Z,22.80
2018-09-18T06:49:02.712Z,23.00
2018-09-18T06:51:30.637Z,23.10
2018-09-18T06:53:58.453Z,23.30
2018-09-18T06:56:26.265Z,23.30
2018-09-18T06:58:54.092Z,23.50
2018-09-18T07:01:22.002Z,23.50
2018-09-18T07:03:50.895Z,23.60
2018-09-18T07:06:18.745Z,23.90
2018-09-18T07:08:46.548Z,24.00
2018-09-18T07:11:14.296Z,24.20
2018-09-18T07:13:42.086Z,24.40
2018-09-18T07:16:09.868Z,24.50
2018-09-18T07:18:37.643Z,24.70
2018-09-18T07:21:05.605Z,25.10
2018-09-18T07:23:33.438Z,25.40
2018-09-18T07:26:01.325Z,25.50
2018-09-18T07:28:29.113Z,25.70
2018-09-18T07:30:56.946Z,25.90
2018-09-18T07:33:24.761Z,26.40
2018-09-18T07:35:52.633Z,26.40
2018-09-18T07:38:20.444Z,26.60
2018-09-18T07:40:48.260Z,27.00
2018-09-18T07:43:16.137Z,27.20
2018-09-18T07:45:44.101Z,27.40
2018-09-18T07:48:12.093Z,27.20
2018-09-18T07:50:40.164Z,26.80
2018-09-18T07:53:07.984Z,26.80
2018-09-18T07:55:36.547Z,26.70
2018-09-18T07:58:04.337Z,26.70
2018-09-18T08:00:32.173Z,26.80
2018-09-18T08:02:59.981Z,26.80
2018-09-18T08:05:27.777Z,26.90
2018-09-18T08:07:55.620Z,26.80
2018-09-18T08:10:23.472Z,26.90
2018-09-18T08:12:51.393Z,26.90
2018-09-18T08:15:19.217Z,27.10
2018-09-18T08:17:47.005Z,27.20
2018-09-18T08:20:14.773Z,27.40
2018-09-18T08:22:42.578Z,27.20
2018-09-18T08:25:10.383Z,27.00
2018-09-18T08:27:38.161Z,26.90
2018-09-18T08:30:05.977Z,26.60
2018-09-18T08:32:33.809Z,26.60
2018-09-18T08:35:01.583Z,27.00
2018-09-18T08:37:29.389Z,27.10
2018-09-18T08:39:57.295Z,27.60
2018-09-18T08:42:25.420Z,27.60
2018-09-18T08:44:53.332Z,28.10
2018-09-18T08:47:21.164Z,28.40
2018-09-18T08:49:48.941Z,28.90
2018-09-18T08:52:16.729Z,29.60
2018-09-18T08:54:44.524Z,29.70
2018-09-18T08:57:12.367Z,29.90
2018-09-18T08:59:40.157Z,30.20
2018-09-18T09:02:07.949Z,30.30
2018-09-18T09:04:35.787Z,30.60
2018-09-18T09:07:03.613Z,30.80
2018-09-18T09:09:31.439Z,31.30
2018-09-18T09:11:59.188Z,31.50
2018-09-18T09:14:27.083Z,31.90
2018-09-18T09:16:57.076Z,31.80
2018-09-18T09:19:24.950Z,32.00
2018-09-18T09:21:53.081Z,32.00
2018-09-18T09:24:20.653Z,32.20
2018-09-18T09:26:48.514Z,32.40
2018-09-18T09:29:16.297Z,32.80
2018-09-18T09:31:44.074Z,33.00
2018-09-18T09:34:11.854Z,33.40
2018-09-18T09:36:39.642Z,34.00
2018-09-18T09:39:09.413Z,34.10
2018-09-18T09:41:37.190Z,34.40
2018-09-18T09:44:05.040Z,34.40
2018-09-18T09:46:32.869Z,34.40
2018-09-18T09:49:00.653Z,34.60
2018-09-18T09:51:28.487Z,34.60
2018-09-18T09:53:56.296Z,34.80
2018-09-18T09:56:24.237Z,34.90
2018-09-18T09:58:52.085Z,35.10
2018-09-18T10:01:25.394Z,35.30
2018-09-18T10:03:53.413Z,35.60
2018-09-18T10:06:21.203Z,35.90
2018-09-18T10:08:48.957Z,36.30
2018-09-18T10:11:16.835Z,36.50
2018-09-18T10:13:44.619Z,36.80
2018-09-18T10:16:12.447Z,37.20
2018-09-18T10:18:40.201Z,37.10
2018-09-18T10:21:08.005Z,37.10
2018-09-18T10:23:35.817Z,37.20
2018-09-18T10:26:03.597Z,37.40
2018-09-18T10:28:31.424Z,37.50
2018-09-18T10:30:59.188Z,37.80
2018-09-18T10:33:27.000Z,38.10
2018-09-18T10:35:54.939Z,38.20
2018-09-18T10:38:22.931Z,38.40
2018-09-18T10:40:50.864Z,38.70
2018-09-18T10:43:18.605Z,38.90
2018-09-18T10:45:46.456Z,39.00
2018-09-18T10:48:14.206Z,38.80
2018-09-18T10:50:42.008Z,38.40
2018-09-18T10:53:09.781Z,37.90
2018-09-18T10:55:37.612Z,37.30
2018-09-18T10:58:05.964Z,36.70
2018-09-18T11:00:33.763Z,36.10
2018-09-18T11:03:03.159Z,35.50
2018-09-18T11:05:30.966Z,35.00
2018-09-18T11:07:58.834Z,34.50
2018-09-18T11:10:26.772Z,34.00
2018-09-18T11:12:54.608Z,33.60
2018-09-18T11:15:22.460Z,33.20
2018-09-18T11:17:51.480Z,32.70
2018-09-18T11:20:19.770Z,32.20
2018-09-18T11:22:47.527Z,31.80
2018-09-18T11:25:15.383Z,31.50
2018-09-18T11:27:43.251Z,31.20
2018-09-18T11:30:11.038Z,31.00
2018-09-18T11:32:38.971Z,31.00
2018-09-18T11:35:06.738Z,31.20
2018-09-18T11:37:34.525Z,31.30
2018-09-18T11:40:02.317Z,31.30
2018-09-18T11:42:30.133Z,31.30
2018-09-18T11:44:57.920Z,31.20
2018-09-18T11:47:25.710Z,31.10
2018-09-18T11:49:53.614Z,30.90
2018-09-18T11:52:21.372Z,30.80
2018-09-18T11:54:49.193Z,30.70
2018-09-18T11:57:17.042Z,30.50
2018-09-18T11:59:44.765Z,30.40
2018-09-18T12:02:12.650Z,30.30
2018-09-18T12:04:40.492Z,30.10
2018-09-18T12:07:08.208Z,30.00
2018-09-18T12:09:36.004Z,29.80
2018-09-18T12:12:03.796Z,29.70
2018-09-18T12:14:31.581Z,29.50
2018-09-18T12:16:59.471Z,29.40
2018-09-18T12:19:27.343Z,29.30
2018-09-18T12:21:55.237Z,29.10
2018-09-18T12:24:23.206Z,29.00
2018-09-18T12:26:50.999Z,28.90
2018-09-18T12:29:18.776Z,28.80
2018-09-18T12:31:46.594Z,28.70
2018-09-18T12:34:14.385Z,28.70
2018-09-18T12:36:42.832Z,28.70
2018-09-18T12:39:10.645Z,28.80
2018-09-18T12:41:39.202Z,28.80
2018-09-18T12:44:07.233Z,28.60
2018-09-18T12:46:35.073Z,28.50
2018-09-18T12:49:02.912Z,28.50
2018-09-18T12:51:30.649Z,28.50
2018-09-18T12:53:58.564Z,28.50
2018-09-18T12:56:26.479Z,28.50
2018-09-18T12:58:54.301Z,28.50
2018-09-18T13:01:22.121Z,28.50
2018-09-18T13:03:51.228Z,28.50
2018-09-18T13:06:19.120Z,28.60
2018-09-18T13:08:46.825Z,28.80
2018-09-18T13:11:14.584Z,28.90
2018-09-18T13:13:42.390Z,29.10
2018-09-18T13:16:10.183Z,29.20
2018-09-18T13:18:37.965Z,29.50
2018-09-18T13:21:05.855Z,29.60
2018-09-18T13:23:33.638Z,29.70
2018-09-18T13:26:01.457Z,29.80
2018-09-18T13:28:29.255Z,29.80
2018-09-18T13:30:57.145Z,30.00
2018-09-18T13:33:25.018Z,30.50
2018-09-18T13:35:52.855Z,30.80
2018-09-18T13:38:20.681Z,31.00
2018-09-18T13:40:48.529Z,31.10
2018-09-18T13:43:16.305Z,31.20
2018-09-18T13:45:44.133Z,31.30
2018-09-18T13:48:11.887Z,31.60
2018-09-18T13:50:39.671Z,32.00
2018-09-18T13:53:07.588Z,32.60
2018-09-18T13:55:35.429Z,33.20
2018-09-18T13:58:03.393Z,33.40
2018-09-18T14:00:31.252Z,33.70
2018-09-18T14:02:59.122Z,34.20
2018-09-18T14:05:30.461Z,34.50
2018-09-18T14:07:58.207Z,34.80
2018-09-18T14:10:26.114Z,34.90
2018-09-18T14:12:53.885Z,35.00
2018-09-18T14:15:21.698Z,35.00
2018-09-18T14:17:49.477Z,35.00
2018-09-18T14:20:17.280Z,35.20
2018-09-18T14:22:45.092Z,35.50
2018-09-18T14:25:12.899Z,35.90
2018-09-18T14:27:40.705Z,36.30
2018-09-18T14:30:08.482Z,36.70
2018-09-18T14:32:36.252Z,37.00
2018-09-18T14:35:04.072Z,37.20
2018-09-18T14:37:31.865Z,37.30
2018-09-18T14:39:59.993Z,37.10
2018-09-18T14:42:28.101Z,36.90
2018-09-18T14:44:56.041Z,36.80
2018-09-18T14:47:23.828Z,36.90
2018-09-18T14:49:51.704Z,36.90
2018-09-18T14:52:19.493Z,37.00
2018-09-18T14:54:47.298Z,37.00
2018-09-18T14:57:15.124Z,37.10
2018-09-18T14:59:43.038Z,37.20
2018-09-18T15:02:10.867Z,37.20
2018-09-18T15:04:38.982Z,37.10
2018-09-18T15:07:07.515Z,37.00
2018-09-18T15:09:35.354Z,37.10
2018-09-18T15:12:03.264Z,37.20
2018-09-18T15:14:31.065Z,37.20
2018-09-18T15:16:58.922Z,37.30
2018-09-18T15:19:27.250Z,37.30
2018-09-18T15:21:55.171Z,37.30
2018-09-18T15:24:23.011Z,37.20
2018-09-18T15:26:53.061Z,37.10
2018-09-18T15:29:20.908Z,36.90
2018-09-18T15:31:48.798Z,36.80
2018-09-18T15:34:16.598Z,36.60
2018-09-18T15:36:44.473Z,36.30
2018-09-18T15:39:12.237Z,36.00
2018-09-18T15:41:39.997Z,35.70
2018-09-18T15:44:08.051Z,35.40
2018-09-18T15:46:36.156Z,35.00
2018-09-18T15:49:04.117Z,34.60
2018-09-18T15:51:32.121Z,34.30
2018-09-18T15:53:59.913Z,33.90
2018-09-18T15:56:27.789Z,33.50
2018-09-18T15:58:55.745Z,33.10
2018-09-18T16:01:23.552Z,32.70
2018-09-18T16:03:51.493Z,32.40
2018-09-18T16:06:19.322Z,32.10
2018-09-18T16:08:47.103Z,31.70
2018-09-18T16:11:14.901Z,31.50
2018-09-18T16:13:42.716Z,31.20
2018-09-18T16:16:10.626Z,31.00
2018-09-18T16:18:38.413Z,30.80
2018-09-18T16:21:06.216Z,30.80
2018-09-18T16:26:02.080Z,30.70
2018-09-18T16:28:30.017Z,30.70
2018-09-18T16:30:57.935Z,30.60
2018-09-18T16:33:26.149Z,30.40
2018-09-18T16:35:53.925Z,30.20
2018-09-18T16:38:21.868Z,30.00
2018-09-18T16:40:50.174Z,29.80
2018-09-18T16:43:17.933Z,29.60
2018-09-18T16:45:45.833Z,29.30
2018-09-18T16:48:13.677Z,29.10
2018-09-18T16:50:41.487Z,28.90
2018-09-18T16:53:09.326Z,28.80
2018-09-18T16:55:37.102Z,28.60
2018-09-18T16:58:04.912Z,28.40
2018-09-18T17:00:32.788Z,28.20
2018-09-18T17:03:00.554Z,28.10
2018-09-18T17:05:28.453Z,27.90
2018-09-18T17:07:56.411Z,27.70
2018-09-18T17:10:24.250Z,27.60
2018-09-18T17:12:52.010Z,27.50
2018-09-18T17:15:19.899Z,27.30
2018-09-18T17:17:47.685Z,27.20
2018-09-18T17:20:15.474Z,27.00
2018-09-18T17:22:43.351Z,26.90
2018-09-18T17:25:11.193Z,26.70
2018-09-18T17:27:38.982Z,26.50
2018-09-18T17:30:06.827Z,26.30
2018-09-18T17:32:34.634Z,26.00
2018-09-18T17:35:02.460Z,25.90
2018-09-18T17:37:30.316Z,25.70
2018-09-18T17:39:58.428Z,25.60
2018-09-18T17:42:26.267Z,25.40
2018-09-18T17:44:54.064Z,25.30
2018-09-18T17:47:22.019Z,25.10
2018-09-18T17:49:49.738Z,25.00
2018-09-18T17:52:17.498Z,24.80
2018-09-18T17:54:45.346Z,24.60
2018-09-18T17:57:13.186Z,24.50
2018-09-18T17:59:41.091Z,24.50
2018-09-18T18:02:09.339Z,24.30
2018-09-18T18:04:37.323Z,24.30
2018-09-18T18:07:05.317Z,24.10
2018-09-18T18:09:33.116Z,24.20
2018-09-18T18:12:00.976Z,24.10
2018-09-18T18:14:28.881Z,23.90
2018-09-18T18:16:56.814Z,23.80
2018-09-18T18:19:24.653Z,23.70
2018-09-18T18:21:52.438Z,23.70
2018-09-18T18:24:20.243Z,23.50
2018-09-18T18:26:48.064Z,23.40
2018-09-18T18:29:15.888Z,23.30
2018-09-18T18:31:43.744Z,23.30
2018-09-18T18:34:11.558Z,23.20
2018-09-18T18:36:39.625Z,23.10
2018-09-18T18:39:08.024Z,23.20
2018-09-18T18:41:35.949Z,23.20
2018-09-18T18:44:03.673Z,23.20
2018-09-18T18:46:31.501Z,23.20
2018-09-18T18:48:59.432Z,23.10
2018-09-18T18:51:27.381Z,23.00
2018-09-18T18:53:55.148Z,22.90
2018-09-18T18:56:22.935Z,22.90
2018-09-18T18:58:50.758Z,22.90
2018-09-18T19:01:18.583Z,22.80
2018-09-18T19:03:47.434Z,22.90
2018-09-18T19:06:15.238Z,22.90
2018-09-18T19:08:43.061Z,22.80
2018-09-18T19:11:10.856Z,22.80
2018-09-18T19:13:38.631Z,23.00
2018-09-18T19:16:06.425Z,23.00
2018-09-18T19:18:34.304Z,23.00
2018-09-18T19:21:02.071Z,22.90
2018-09-18T19:23:30.009Z,22.90
2018-09-18T19:25:57.921Z,22.80
2018-09-18T19:28:25.684Z,22.70
2018-09-18T19:30:53.584Z,22.80
2018-09-18T19:33:21.465Z,22.80
2018-09-18T19:35:49.265Z,22.70
2018-09-18T19:38:17.108Z,22.60
2018-09-18T19:40:45.029Z,22.50
2018-09-18T19:43:12.903Z,22.40
2018-09-18T19:45:40.765Z,22.40
2018-09-18T19:48:08.650Z,22.30
2018-09-18T19:50:36.649Z,22.40
2018-09-18T19:53:04.514Z,22.50
2018-09-18T19:55:32.486Z,22.50
2018-09-18T19:58:00.289Z,22.50
2018-09-18T20:00:28.146Z,22.50
2018-09-18T20:02:55.990Z,22.50
2018-09-18T20:05:23.822Z,22.40
2018-09-18T20:07:51.619Z,22.40
2018-09-18T20:10:19.401Z,22.30
2018-09-18T20:12:47.315Z,22.30
2018-09-18T20:15:15.133Z,22.20
2018-09-18T20:17:43.102Z,22.10
2018-09-18T20:20:10.900Z,22.00
2018-09-18T20:22:38.701Z,21.90
2018-09-18T20:25:06.550Z,22.00
2018-09-18T20:27:34.378Z,22.00
2018-09-18T20:30:02.239Z,22.00
2018-09-18T20:32:30.234Z,21.90
2018-09-18T20:34:58.082Z,21.90
2018-09-18T20:37:25.864Z,21.80
2018-09-18T20:39:53.765Z,21.80
2018-09-18T20:42:21.663Z,21.70
2018-09-18T20:44:49.778Z,21.60
2018-09-18T20:47:19.382Z,21.60
2018-09-18T20:50:03.816Z,21.40
2018-09-18T20:52:33.052Z,21.30
2018-09-18T20:55:02.288Z,21.30
2018-09-18T20:57:30.229Z,21.20
2018-09-18T20:59:58.095Z,21.10
2018-09-18T21:02:26.047Z,21.00
2018-09-18T21:04:53.923Z,21.00
2018-09-18T21:07:21.797Z,20.90
2018-09-18T21:09:49.633Z,20.90
2018-09-18T21:12:17.501Z,20.90
2018-09-18T21:14:45.328Z,20.80
2018-09-18T21:17:13.153Z,20.80
2018-09-18T21:19:41.017Z,20.90
2018-09-18T21:22:09.989Z,20.90
2018-09-18T21:24:38.457Z,21.00
2018-09-18T21:27:06.577Z,21.10
2018-09-18T21:29:34.356Z,21.00
2018-09-18T21:32:02.149Z,20.90
2018-09-18T21:34:30.008Z,20.90
2018-09-18T21:36:57.948Z,20.80
2018-09-18T21:39:25.784Z,20.80
2018-09-18T21:41:53.576Z,20.90
2018-09-18T21:44:22.229Z,20.90
2018-09-18T21:46:50.065Z,20.90
2018-09-18T21:49:17.873Z,20.90
2018-09-18T21:51:45.612Z,21.00
2018-09-18T21:54:13.404Z,21.00
2018-09-18T21:56:41.174Z,21.00
2018-09-18T21:59:09.023Z,21.00
2018-09-18T22:01:52.013Z,20.90
2018-09-18T22:04:20.000Z,21.00
2018-09-18T22:06:47.794Z,21.00
2018-09-18T22:09:15.715Z,20.90
2018-09-18T22:11:43.545Z,20.80
2018-09-18T22:14:16.322Z,20.70
2018-09-18T22:16:44.155Z,20.70
2018-09-18T22:19:11.913Z,20.60
2018-09-18T22:21:39.699Z,20.60
2018-09-18T22:24:07.469Z,20.50
2018-09-18T22:26:35.245Z,20.50
2018-09-18T22:29:05.321Z,20.50
2018-09-18T22:31:33.148Z,20.50
2018-09-18T22:34:01.108Z,20.40
2018-09-18T22:36:28.946Z,20.40
2018-09-18T22:38:56.940Z,20.40
2018-09-18T22:41:24.764Z,20.40
2018-09-18T22:43:52.589Z,20.40
2018-09-18T22:46:20.389Z,20.40
2018-09-18T22:48:48.165Z,20.40
2018-09-18T22:51:16.135Z,20.40
2018-09-18T22:53:43.921Z,20.40
2018-09-18T22:56:11.712Z,20.50
2018-09-18T22:58:39.662Z,20.50
2018-09-18T23:01:08.058Z,20.40
2018-09-18T23:03:36.057Z,20.40
2018-09-18T23:06:03.848Z,20.40
2018-09-18T23:08:31.771Z,20.40
2018-09-18T23:10:59.712Z,20.50
2018-09-18T23:13:27.493Z,20.40
2018-09-18T23:15:55.370Z,20.30
2018-09-18T23:18:23.150Z,20.30
2018-09-18T23:20:50.929Z,20.30
2018-09-18T23:23:18.780Z,20.30
2018-09-18T23:25:46.573Z,20.30
2018-09-18T23:28:14.658Z,20.30
2018-09-18T23:30:42.440Z,20.50
2018-09-18T23:33:10.266Z,20.60
2018-09-18T23:35:38.044Z,20.70
2018-09-18T23:38:05.824Z,20.50
2018-09-18T23:40:33.593Z,20.60
2018-09-18T23:43:01.604Z,20.60
2018-09-18T23:45:32.801Z,20.50
2018-09-18T23:48:01.852Z,20.50
2018-09-18T23:50:29.746Z,20.60
2018-09-18T23:52:57.572Z,20.70
2018-09-18T23:55:25.428Z,20.60
2018-09-18T23:57:53.190Z,20.60
